Snohomish County (Paine Field) Airport
KPAE : rendu visible

Aérodrome :











RETROUVEZ-NOUS SUR...

 
LOGIN :

S'inscrire | Disclaimer

   EN    FR    IT 

 









Légende :    VFR   VFR Marginal   IFR   IFR Intensif   IFR Très Intensif
Visi : 
Plafond : 
>= 8 km
>= 3000ft
5 à 8 km
1000 à 3000 ft
1500m à 5 km
500 à 1000 ft
800 à 1500m
200 à 500 ft
< 800m
< 200 ft
Symboles :   Orages  Brouillard  Fortes neiges  Fortes précipitations  Vent > 20 kt






- Altitude de l'aérodrome : 606 ft
- Code IATA : PAE


KPAE - Snohomish County (Paine Field)

DERNIER METAR :
  • 271253Z AUTO 02003KT 10SM CLR 09/07 A3018 RMK AO2 SLP221 T00940067

METARs EXPIRÉS :
  • 271153Z AUTO 05005KT 10SM CLR 10/07 A3017 RMK AO2 SLP217 70002 T01000067 10117 20094 58002
  • 271053Z AUTO 02005KT 10SM CLR 10/08 A3017 RMK AO2 SLP217 T01000083

TAF KPAE
Valide du 27 à 12h jusqu'au 28 à 12h UTC


271120Z 2712/2812 02005KT P6SM SCT250
FM271700 34007KT P6SM SCT250
FM280400 01004KT P6SM FEW250
FIR KZSE / Amérique du Nord



MET'MAP, la Météo Aéronautique d'un coup d'oeil ! - Copyright ORBIFLY Décembre 2007 - Disclaimer

ORBIFLY MET'MAP TEAM :

Programmation & Développement : Alexandra Zaïnal
Sur une idée originale de : Baudouin d'Aumeries
Assistance à la programmation : Marc-Olivier Méhu
Soutien technique & logistique : Manuel Goepfert

Contact : metmap@orbifly.com




SOURCES & CREDITS :

   NOAA       Earth
Advisory